Oleh Vanat

Recruteur en chef - Zorya
20 Févr 2028
Dimanche
Processus

Personnalité

Adaptabilité (12) Ambition (10) Controverse (11) Loyauté (10) Pression (2) Professionnalisme (4) Sportivité (11) Tempérament (3)

Profil

Style d'entraînement Démocratique
Diplôme Continental A
Détermination 9
Gestion des joueurs 8
Motivation 6
Discipline 5
Satisfaction professionnelle
100%
Fatigue
0%
Rôle Recruteur en chef
Salaire 59.6K p/s
Contrat 14.03.2030

Performance

Comportement Bon
Efficacité de l'entraînement
46%
Développement des joueurs
20%
Prévention des blessures
35%
Mise en place tactique
65%

Événements récents

A participé à une réunion de recrutement maintenant
A participé à une réunion de recrutement maintenant
A recommandé une cible de transfert maintenant
A participé à une réunion de recrutement 7j
A participé à une réunion de recrutement 7j
A recommandé une cible de transfert 7j
A recommandé une cible de transfert 7j
A participé à une réunion de recrutement 7j

Suivi en cours

170
Joueur Club Statut Capacité Confiance Observé Dernière observation Dernier vote
Ayden Heaven Luton Town Actif 133 / 147 40% 4 07.02.2028 -
Abubakar Adams Aduana Stars Actif 81 / 94 40% 1 07.02.2028 -
Mauro Carrizo Atlético Tucumán Actif 98 / 105 40% 6 25.01.2028 -
Mao Hosoya Everton Négociation 134 / 135 67% 1 25.01.2028 Approuver
Callum O'Hare Sheffield United Actif 146 / 132 40% 2 24.01.2028 -
Ronan Kpakio Cardiff City Actif 142 / 131 40% 3 23.01.2028 -
Izan Merino Málaga Actif 132 / 135 40% 1 23.01.2028 -
Mikkel Hope Haugesund Actif 95 / 105 40% 4 21.01.2028 -
Lucas Camejo River Plate Actif 80 / 87 40% 6 21.01.2028 -
Matías Canedo Rampla Juniors Actif 80 / 92 40% 2 19.01.2028 -
Giovanni Leoni Bradford City Actif 157 / 147 40% 3 17.01.2028 -
Narcis Ilaş CFR Cluj Actif 108 / 120 40% 2 15.01.2028 -
Josh Nichols Tranmere Rovers Actif 133 / 127 40% 1 15.01.2028 -
Alejandro Almaraz Nueva Chicago Actif 106 / 113 40% 3 13.01.2028 -
Fillip Jenssen Riise Stabaek Actif 85 / 108 40% 1 13.01.2028 -
Jofre Torrents Ajax Actif 128 / 134 40% 1 12.01.2028 -
Caleb Yirenkyi Coventry City Actif 141 / 146 40% 3 07.01.2028 -
José Correa Deportivo Tachira Actif 103 / 97 40% 2 07.01.2028 -
Jair Collahuazo Kudrivka Actif 99 / 107 40% 2 06.01.2028 -
Olivier Mambwa Young Boys Actif 125 / 121 40% 1 06.01.2028 Plus d'infos
David Valencia Alianza Petrolera Actif 126 / 131 40% 2 05.01.2028 -
Óscar Hinojosa Metropolitanos Actif 72 / 84 40% 4 04.01.2028 -
Tyson Pearce St. Louis CITY SC Actif 113 / 103 40% 2 03.01.2028 -
Junior Machis Atletico Venezuela Actif 84 / 82 40% 2 30.12.2027 -
David Asayure Lokomotivi Actif 71 / 83 40% 1 26.12.2027 -
Joel Ezra Enyimba Actif 89 / 104 40% 6 25.12.2027 -
David Damboama El-Kanemi Warriors Actif 76 / 91 40% 6 23.12.2027 -
Juan Camilo Córdoba Deportivo Pereira Actif 95 / 95 40% 4 22.12.2027 -
Mohammed Habib Sarwari Kariobangi Sharks Actif 90 / 78 40% 5 20.12.2027 -
Olaniyi Saheed Kwara United Actif 91 / 103 40% 3 19.12.2027 -
Tiago Gordillo San Miguel Actif 89 / 93 40% 3 09.12.2027 -
Esquerdinha Shrewsbury Town Actif 129 / 123 40% 1 09.12.2027 -
Maksym Danyliuk HIFK Actif 66 / 76 40% 1 06.12.2027 -
Aleko Basiladze Slovan Liberec Actif 102 / 116 40% 1 06.12.2027 -
Eduardo Felicíssimo Sporting CP Actif 121 / 127 40% 1 05.12.2027 -
Jovan Milosavljević Kalmar FF Actif 92 / 106 40% 2 26.11.2027 -
Hosea Michael Remo Stars Actif 89 / 89 40% 1 25.11.2027 -
Christos Mouzakitis Hull City Actif 149 / 149 40% 3 24.11.2027 -
Daniel Banjaqui Benfica Actif 116 / 129 40% 1 24.11.2027 -
Godwin Oham Warri Wolves Actif 82 / 88 40% 4 14.11.2027 -
Samuel Posada Leones Actif 94 / 89 40% 2 12.11.2027 -
Ignacio Fernández Boston River Actif 79 / 99 40% 1 12.11.2027 -
Onuorah Onyedika Kun Khalifat Actif 86 / 89 40% 2 07.11.2027 -
Juan Morán Godoy Cruz Actif 121 / 116 40% 2 05.11.2027 -
Ricky Atletico Venezuela Actif 89 / 99 40% 1 01.11.2027 -
Malick Yalcouyé Brighton Actif 116 / 130 40% 1 28.10.2027 -
Alexandr Voronovich Shukura Actif 78 / 83 40% 1 23.10.2027 -
Esteban de Lima Tacuarembo Actif 80 / 95 40% 1 21.10.2027 -
Somtochuwku Ezenabo Kwara United Actif 79 / 99 40% 1 14.10.2027 -
Hervin Goyes Deportivo Pasto Actif 93 / 113 40% 1 14.10.2027 -
Celías Ingenthron Vélez Actif 108 / 124 40% 1 12.10.2027 -
Issa Yusuf Shooting Stars Actif 93 / 95 40% 1 10.10.2027 -
Chibueze Oputa Rangers International Actif 80 / 93 40% 1 04.10.2027 -
Gift Udoh Ikorodu City Actif 95 / 96 40% 1 04.10.2027 -
Santiago Sala Güemes Actif 105 / 109 40% 1 06.09.2027 -
Ivo Costantino Rentistas Actif 125 / 110 40% 1 06.09.2027 -
Vikentiy Voloshyn Livyi Bereh Actif 102 / 95 48% 1 23.08.2027 -
Latrell Aken Groningen Actif 121 / 119 40% 1 09.08.2027 -
Sascha Britschgi Padova Actif 123 / 128 40% 1 09.08.2027 -
Martim Cunha Porto Actif 93 / 110 40% 2 02.08.2027 -
Kazunari Kita Real Sociedad Actif 89 / 106 40% 1 02.08.2027 -
Juan Mosquera Sheffield Wednesday Actif 149 / 131 40% 1 19.07.2027 -
Ali Ahmed Norwich City Actif 119 / 133 40% 1 19.07.2027 -
Finley McAllister Grimsby Town Actif 109 / 94 40% 1 13.07.2027 -
Tiago Freitas Benfica Actif 124 / 123 40% 1 28.06.2027 -
Pedro de la Vega FC Dallas Actif 133 / 134 66% 1 14.06.2027 Approuver
Ronald Swansea City Actif 125 / 124 40% 1 13.06.2027 -
Igor Burnley Actif 157 / 139 40% 1 13.06.2027 -
Callum Lang Preston Actif 117 / 116 40% 2 12.06.2027 -
Ilyas Ansah Hull City Actif 128 / 130 40% 2 12.06.2027 -
Oleksii Hutsuliak Polissia Actif 133 / 124 40% 5 11.06.2027 -
Elijah Adebayo Luton Town Actif 142 / 124 40% 4 10.06.2027 -
Giuseppe Di Serio Spezia Actif 139 / 119 40% 1 10.06.2027 -
Lamine Guèye Barrow AFC Actif 118 / 110 40% 1 03.06.2027 -
Lewis Morgan SuperSport United Actif 110 / 121 40% 8 01.06.2027 -
Oli McBurnie Hull City Actif 148 / 136 40% 3 01.06.2027 -
Ross Stewart Southampton Actif 128 / 123 40% 2 31.05.2027 -
Aune Heggebø West Bromwich Albion Actif 135 / 126 40% 4 31.05.2027 -
Mathias Jørgensen Blackburn Rovers Actif 114 / 114 40% 2 27.05.2027 -
Aaron Collins Milton Keynes Dons Actif 111 / 110 40% 3 25.05.2027 -
John Yeboah Venezia Actif 130 / 123 40% 1 25.05.2027 -
Dom Ballard Leyton Orient Actif 138 / 121 40% 5 23.05.2027 -
Dany Mota Monza Actif 123 / 136 40% 1 22.05.2027 -
Bojan Radulović Huddersfield Town Actif 135 / 121 40% 1 20.05.2027 -
Tom Cannon Sheffield United Actif 141 / 123 40% 2 13.05.2027 -
Lorent Tolaj Plymouth Argyle Actif 111 / 118 40% 3 12.05.2027 -
Zian Flemming Ipswich Town Actif 145 / 131 40% 2 12.05.2027 -
Will Lankshear Middlesbrough Actif 108 / 129 40% 3 09.05.2027 -
Victor Torp Coventry City Actif 143 / 127 40% 1 09.05.2027 -
Zeki Amdouni Burnley Actif 148 / 132 40% 1 07.05.2027 -
Moussa Dembélé CR Belouizdad Actif 118 / 133 40% 1 05.05.2027 -
Rhian Brewster Oxford United Actif 140 / 127 40% 2 04.05.2027 -
Marco Tumminello Benevento Actif 131 / 107 40% 1 04.05.2027 -
Richard Koné Queens Park Rangers Actif 143 / 130 40% 1 01.05.2027 -
Luis Vázquez Birmingham Actif 151 / 128 40% 1 01.05.2027 -
Themba Ngcobo SuperSport United Actif 118 / 113 40% 2 26.04.2027 -
Kyle Wootton Stockport County Actif 132 / 118 40% 1 21.04.2027 -
Karlan Grant West Bromwich Albion Actif 106 / 121 40% 1 20.04.2027 -
Patson Daka Leicester City Actif 117 / 124 40% 1 19.04.2027 -
Ettore Gliozzi Mantova Actif 104 / 111 40% 1 19.04.2027 -
Tyrese Campbell Sheffield United Actif 145 / 122 40% 1 17.04.2027 -
Tyreece Campbell Charlton Athletic Actif 122 / 124 40% 1 15.04.2027 -
Mattia Bortolussi Padova Actif 119 / 125 40% 1 13.04.2027 -
Sam Bell Bristol City Actif 102 / 115 40% 1 05.04.2027 -
Lorenzo De Leo Renate Actif 106 / 99 40% 1 22.02.2027 -
Filippo Ranocchia Palermo Actif 131 / 129 40% 1 16.02.2027 -
Jean Pedroso Karpaty Actif 104 / 111 44% 2 01.02.2027 -
Kai Cipot Veres Actif 109 / 105 40% 1 01.02.2027 -
Oleksandr Drambaiev LNZ Actif 120 / 116 40% 3 28.01.2027 Observer
Serhiy Buletsa Oleksandriya Actif 102 / 107 40% 3 24.01.2027 -
Yurii Klymchuk Kolos Actif 103 / 113 40% 2 21.01.2027 -
Maksym Tretiakov Obolon Actif 112 / 108 40% 2 21.01.2027 -
Nduduzo Sibiya Golden Arrows Actif 110 / 111 40% 1 20.01.2027 -
Reda Khadra Qarabag Actif 116 / 125 40% 4 19.01.2027 -
José Martínes CSKA 1948 Actif 112 / 108 40% 2 16.01.2027 -
Tshepang Moremi Orlando Pirates Actif 96 / 121 40% 2 13.01.2027 -
Bohdan Liedniev APOEL Actif 97 / 111 40% 2 11.01.2027 -
Rafael Profini Metalist Actif 123 / 123 40% 1 11.01.2027 -
Ruben van Bommel Ferencvaros Actif 138 / 135 40% 1 11.01.2027 -
Baton Zabërgja Kolos Actif 107 / 110 40% 3 10.01.2027 -
Mduduzi Shabalala Kaizer Chiefs Actif 109 / 115 40% 5 06.01.2027 -
Moha Karpaty Actif 118 / 114 40% 1 06.01.2027 -
Filip Kaloč Ludogorets Actif 135 / 123 40% 1 05.01.2027 Plus d'infos
Nazar Voloshyn Dynamo Kyiv Actif 122 / 124 40% 3 30.12.2026 -
Oleksandr Pikhalionok Dynamo Kyiv Actif 129 / 122 40% 3 28.12.2026 -
Jordan Lotomba Bloemfontein Celtic Actif 110 / 132 40% 3 27.12.2026 -
Tedi Cara LNZ Actif 106 / 118 40% 1 26.12.2026 -
Oleksandr Tymchyk Dynamo Kyiv Actif 132 / 127 40% 4 24.12.2026 -
Suleiman Camara Slovan Bratislava Actif 108 / 123 40% 1 23.12.2026 -
Prosper Obah Shakhtar Actif 129 / 119 40% 1 21.12.2026 -
Muharrem Jashari LNZ Actif 130 / 110 40% 1 18.12.2026 -
Petar Stanić Ludogorets Actif 124 / 138 40% 3 13.12.2026 Observer
Adilson Córdoba Actif 127 / 121 40% 1 11.12.2026 -
Aarón Molinas Defensa y Justicia Actif 128 / 131 40% 1 10.12.2026 -
Mandla Erasmus SuperSport United Actif 103 / 126 40% 3 08.12.2026 Observer
Róbert Polievka MTK Budapest Actif 116 / 109 40% 1 08.12.2026 -
Yehor Tverdokhlib LNZ Actif 121 / 115 40% 1 06.12.2026 -
Aidomo Emakhu Oxford United Actif 126 / 116 40% 1 06.12.2026 -
Xeber Alkain Karpaty Actif 121 / 114 40% 3 04.12.2026 -
Arinaldo Rrapaj Kolos Actif 123 / 114 40% 1 04.12.2026 -
Oswin Appollis Orlando Pirates Actif 108 / 128 40% 2 02.12.2026 -
Breel Embolo Atlanta United FC Actif 125 / 147 40% 4 30.11.2026 -
Mykola Shaparenko Dynamo Kyiv Actif 130 / 134 40% 1 29.11.2026 -
Nicolás Arévalo Metalist Actif 122 / 114 40% 1 28.11.2026 -
Ivan Kaliuzhnyi Metalist Actif 114 / 118 40% 1 24.11.2026 -
Pedro Henrique Shakhtar Actif 118 / 138 40% 2 22.11.2026 -
Williams Manyama SuperSport United Actif 133 / 123 40% 2 20.11.2026 -
Velemseni Ndwandwe Golden Arrows Actif 93 / 97 40% 2 18.11.2026 -
Denys Antiukh Metalist Actif 99 / 102 40% 1 12.11.2026 -
Tobias Gulliksen Rapid Wien Actif 106 / 126 40% 1 07.11.2026 -
Trai Hume Sunderland Actif 137 / 140 40% 1 02.11.2026 -
Caolan Boyd-Munce Wycombe Wanderers Actif 105 / 116 40% 1 02.11.2026 -
Romano Schmid Frosinone Actif 122 / 144 40% 1 31.10.2026 -
Dmytro Kryskiv Shakhtar Actif 130 / 121 40% 1 31.10.2026 -
Pedrinho Shakhtar Actif 130 / 130 40% 2 30.10.2026 -
Volodymyr Brazhko Dynamo Kyiv Actif 117 / 135 40% 1 22.10.2026 -
Jonathan Levi Ferencvaros Actif 113 / 121 40% 1 18.10.2026 -
Patrick Berg Bodo/Glimt Actif 120 / 131 40% 1 18.10.2026 -
Luka Kurtovic NK Domzale Actif 134 / 123 40% 1 16.10.2026 -
Gabriel Jesus Barcelona Actif 143 / 161 40% 4 15.10.2026 -
Donis Avdijaj Wolfsberger AC Actif 115 / 122 40% 1 11.10.2026 -
Ihor Krasnopir Polissia Actif 102 / 119 40% 1 10.10.2026 -
Daniel Karlsbakk Sarpsborg 08 Actif 106 / 120 40% 1 08.10.2026 -
Vladyslav Dubinchak Dynamo Kyiv Actif 111 / 124 40% 1 07.10.2026 -
Luka Stankovski Kolos Actif 102 / 109 40% 1 14.09.2026 -
Braian Ojeda Orlando City Actif 119 / 123 40% 1 31.08.2026 -
Jack Harrison New England Revolution Actif 125 / 117 40% 1 24.08.2026 -
Sergio Reguilón Inter Miami CF Actif 121 / 144 40% 1 24.08.2026 -
Iván Angulo Orlando City Actif 142 / 124 40% 1 18.08.2026 -
Paul Arriola Seattle Sounders Actif 123 / 127 40% 1 18.08.2026 -